Impacts METAR Board
IDs:

KSGR - Houston/Sugar Land R, TX, US

Updated at: 1300 UTC 14 Dec 2019
Potential Impact None Slight Moderate High
Time 14/01Z 14/02Z 14/03Z 14/04Z 14/05Z 14/06Z 14/07Z 14/08Z 14/09Z 14/10Z 14/11Z 14/12Z 14/13Z
Temp61 58 55 53 52 48 49 48 47 47 47 45 45
Dewpt51 51 50 49 48 46 47 46 46 46 45 44 45
Altim29.82 29.84 29.85 29.86 29.87 29.87 29.86 29.87 29.86 29.85 29.85 29.86 29.88
VIS10 10 10 10 10 10 10 10 10 10 10 9 10
CIG-- -- -- -- -- -- -- -- -- -- -- -- --
CoverCLRCLRCLRCLRCLRCLRCLRCLRCLRCLRCLRCLRCLR
FltCatVFRVFRVFRVFRVFRVFRVFRVFRVFRVFRVFRVFRVFR
WX--------------------------
WDir00002022000050000
WSpd0 0 0 0 4 3 0 0 0 3 0 0 0
WGst-- -- -- -- -- -- -- -- -- -- -- -- --
Raw hourly METARs
KSGR 140053Z 00000KT 10SM CLR 16/11 A2982 RMK AO2 SLP100 T01610106
KSGR 140153Z 00000KT 10SM CLR 14/11 A2984 RMK AO2 SLP107 T01440106
KSGR 140253Z 00000KT 10SM CLR 13/10 A2985 RMK AO2 SLP109 T01280100 51015
KSGR 140353Z AUTO 00000KT 10SM CLR 12/09 A2986 RMK AO2 SLP113 T01170094
KSGR 140453Z AUTO 02004KT 10SM CLR 11/09 A2987 RMK AO2 SLP116 T01110089
KSGR 140553Z AUTO 22003KT 10SM CLR 09/08 A2987 RMK AO2 SLP116 T00890078 10200 20089 402390089 51007
KSGR 140653Z AUTO 00000KT 10SM CLR 09/08 A2986 RMK AO2 SLP112 T00940083
KSGR 140753Z AUTO 00000KT 10SM CLR 09/08 A2987 RMK AO2 SLP115 T00890078
KSGR 140853Z AUTO 00000KT 10SM CLR 08/08 A2986 RMK AO2 SLP113 T00830078 56003
KSGR 140953Z AUTO 05003KT 10SM CLR 08/08 A2985 RMK AO2 SLP109 T00830078
KSGR 141053Z AUTO 00000KT 10SM CLR 08/07 A2985 RMK AO2 SLP109 T00830072
KSGR 141156Z 00000KT 9SM CLR 07/07 A2986 RMK AO2 T00720067
KSGR 141253Z 00000KT 10SM CLR 07/07 A2988 RMK AO2 SLP119 T00720072



Page loaded:  13:46 UTC  |   05:46 AM Pacific  |   06:46 AM Mountain  |   07:46 AM Central  |   08:46 AM Eastern

 

ADVISORIES

FORECASTS

FORECASTS

OBSERVATIONS

USER TOOLS

ABOUT US